createdAt,value
2019-05-05T00:01:00.971Z,99.90
2019-05-05T00:03:44.447Z,99.90
2019-05-05T00:06:14.558Z,99.90
2019-05-05T00:08:41.974Z,99.90
2019-05-05T00:11:30.631Z,99.90
2019-05-05T00:14:07.849Z,99.90
2019-05-05T00:16:50.228Z,99.90
2019-05-05T00:19:29.768Z,99.90
2019-05-05T00:21:47.593Z,99.90
2019-05-05T00:24:15.338Z,99.90
2019-05-05T00:26:43.049Z,99.90
2019-05-05T00:29:10.840Z,99.90
2019-05-05T00:31:38.553Z,99.90
2019-05-05T00:34:06.419Z,99.90
2019-05-05T00:36:35.211Z,99.90
2019-05-05T00:39:04.345Z,99.90
2019-05-05T00:41:32.093Z,99.90
2019-05-05T00:43:59.823Z,99.90
2019-05-05T00:46:56.079Z,99.90
2019-05-05T00:49:25.083Z,99.90
2019-05-05T00:51:54.572Z,99.90
2019-05-05T00:54:24.288Z,99.90
2019-05-05T00:56:54.333Z,99.90
2019-05-05T00:59:25.111Z,99.90
2019-05-05T01:02:10.580Z,99.90
2019-05-05T01:04:46.745Z,99.90
2019-05-05T01:07:14.554Z,99.90
2019-05-05T01:09:44.973Z,99.90
2019-05-05T01:12:14.979Z,99.90
2019-05-05T01:14:44.609Z,99.90
2019-05-05T01:17:14.557Z,99.90
2019-05-05T01:19:41.823Z,99.90
2019-05-05T01:22:09.642Z,99.90
2019-05-05T01:24:37.347Z,99.90
2019-05-05T01:27:05.150Z,99.90
2019-05-05T01:29:34.616Z,99.90
2019-05-05T01:32:05.027Z,99.90
2019-05-05T01:34:39.089Z,99.90
2019-05-05T01:37:15.123Z,99.90
2019-05-05T01:39:55.202Z,99.90
2019-05-05T01:42:24.760Z,99.90
2019-05-05T01:44:52.456Z,99.90
2019-05-05T01:47:20.190Z,99.90
2019-05-05T01:49:47.902Z,99.90
2019-05-05T01:52:15.635Z,99.90
2019-05-05T01:54:44.609Z,99.90
2019-05-05T01:57:14.594Z,99.90
2019-05-05T01:59:42.033Z,99.90
2019-05-05T02:02:09.774Z,99.90
2019-05-05T02:04:37.497Z,99.90
2019-05-05T02:07:05.562Z,99.90
2019-05-05T02:09:35.225Z,99.90
2019-05-05T02:12:04.980Z,99.90
2019-05-05T02:14:32.397Z,99.90
2019-05-05T02:17:00.172Z,99.90
2019-05-05T02:19:27.869Z,99.90
2019-05-05T02:21:55.711Z,99.90
2019-05-05T02:24:25.078Z,99.90
2019-05-05T02:26:54.524Z,99.90
2019-05-05T02:29:31.984Z,99.90
2019-05-05T02:32:17.826Z,99.90
2019-05-05T02:34:51.348Z,99.90
2019-05-05T02:37:19.047Z,99.90
2019-05-05T02:39:57.759Z,99.90
2019-05-05T02:42:16.363Z,99.90
2019-05-05T02:44:45.627Z,99.90
2019-05-05T02:47:41.823Z,99.90
2019-05-05T02:50:09.539Z,99.90
2019-05-05T02:52:37.545Z,99.90
2019-05-05T02:55:05.825Z,99.90
2019-05-05T02:57:34.564Z,99.90
2019-05-05T03:00:13.470Z,99.90
2019-05-05T03:02:43.300Z,99.90
2019-05-05T03:05:10.919Z,99.90
2019-05-05T03:07:38.628Z,99.90
2019-05-05T03:10:07.207Z,99.90
2019-05-05T03:12:34.941Z,99.90
2019-05-05T03:15:04.166Z,99.90
2019-05-05T03:17:33.958Z,99.90
2019-05-05T03:20:01.642Z,99.90
2019-05-05T03:22:29.406Z,99.90
2019-05-05T03:24:57.185Z,99.90
2019-05-05T03:27:24.942Z,99.90
2019-05-05T03:29:53.507Z,99.90
2019-05-05T03:32:24.886Z,99.90
2019-05-05T03:34:51.057Z,99.90
2019-05-05T03:37:18.781Z,99.90
2019-05-05T03:39:53.683Z,99.90
2019-05-05T03:42:33.823Z,99.90
2019-05-05T03:45:05.375Z,99.90
2019-05-05T03:47:33.686Z,99.90
2019-05-05T03:50:01.665Z,99.90
2019-05-05T03:52:29.371Z,99.90
2019-05-05T03:54:57.245Z,99.90
2019-05-05T03:57:24.953Z,99.90
2019-05-05T03:59:54.613Z,99.90
2019-05-05T04:02:56.541Z,99.90
2019-05-05T04:05:34.522Z,99.90
2019-05-05T04:08:03.939Z,99.90
2019-05-05T04:10:33.423Z,99.90
2019-05-05T04:13:01.681Z,99.90
2019-05-05T04:15:29.634Z,99.90
2019-05-05T04:18:19.978Z,99.90
2019-05-05T04:20:47.695Z,99.90
2019-05-05T04:23:15.510Z,99.90
2019-05-05T04:25:43.946Z,99.90
2019-05-05T04:28:13.649Z,99.90
2019-05-05T04:30:41.361Z,99.90
2019-05-05T04:33:09.148Z,99.90
2019-05-05T04:35:36.835Z,99.90
2019-05-05T04:38:05.387Z,99.90
2019-05-05T04:40:34.522Z,99.90
2019-05-05T04:43:03.868Z,99.90
2019-05-05T04:45:31.748Z,99.90
2019-05-05T04:48:21.493Z,99.90
2019-05-05T04:51:09.585Z,99.90
2019-05-05T04:53:59.566Z,99.90
2019-05-05T04:56:29.822Z,99.90
2019-05-05T04:58:56.949Z,99.90
2019-05-05T05:01:24.660Z,99.90
2019-05-05T05:04:13.651Z,99.90
2019-05-05T05:06:44.850Z,99.90
2019-05-05T05:09:14.524Z,99.90
2019-05-05T05:11:44.179Z,99.90
2019-05-05T05:14:11.701Z,99.90
2019-05-05T05:16:39.437Z,99.90
2019-05-05T05:19:07.215Z,99.90
2019-05-05T05:21:34.920Z,99.90
2019-05-05T05:24:04.007Z,99.90
2019-05-05T05:26:33.593Z,99.90
2019-05-05T05:29:01.498Z,99.90
2019-05-05T05:31:29.225Z,99.90
2019-05-05T05:33:56.993Z,99.90
2019-05-05T05:36:24.899Z,99.90
2019-05-05T05:38:54.841Z,99.90
2019-05-05T05:41:54.221Z,99.90
2019-05-05T05:44:30.135Z,99.90
2019-05-05T05:47:17.298Z,99.90
2019-05-05T05:50:00.861Z,99.90
2019-05-05T05:52:28.574Z,99.80
2019-05-05T05:54:56.354Z,97.50
2019-05-05T05:57:24.142Z,96.10
2019-05-05T05:59:51.846Z,93.80
2019-05-05T06:02:19.571Z,91.90
2019-05-05T06:04:47.349Z,90.70
2019-05-05T06:07:15.065Z,87.00
2019-05-05T06:09:43.727Z,83.90
2019-05-05T06:12:11.651Z,81.60
2019-05-05T06:14:39.410Z,79.40
2019-05-05T06:17:07.291Z,78.10
2019-05-05T06:19:35.010Z,78.90
2019-05-05T06:22:03.541Z,79.70
2019-05-05T06:24:31.417Z,80.50
2019-05-05T06:26:59.202Z,79.30
2019-05-05T06:29:26.933Z,81.10
2019-05-05T06:31:54.694Z,77.60
2019-05-05T06:34:24.292Z,77.50
2019-05-05T06:36:53.594Z,79.10
2019-05-05T06:39:21.525Z,77.00
2019-05-05T06:42:14.377Z,74.40
2019-05-05T06:44:50.102Z,75.40
2019-05-05T06:47:20.691Z,74.40
2019-05-05T06:49:48.413Z,70.10
2019-05-05T06:52:16.168Z,68.70
2019-05-05T06:54:43.969Z,66.10
2019-05-05T06:57:13.489Z,70.00
2019-05-05T06:59:41.219Z,69.40
2019-05-05T07:02:08.970Z,63.80
2019-05-05T07:04:36.690Z,65.90
2019-05-05T07:07:05.134Z,64.60
2019-05-05T07:09:33.685Z,65.50
2019-05-05T07:12:01.474Z,65.10
2019-05-05T07:14:29.169Z,65.00
2019-05-05T07:16:56.933Z,62.60
2019-05-05T07:19:24.653Z,61.60
2019-05-05T07:21:53.776Z,60.00
2019-05-05T07:24:23.696Z,58.60
2019-05-05T07:26:51.252Z,57.10
2019-05-05T07:29:18.963Z,57.20
2019-05-05T07:31:46.665Z,57.30
2019-05-05T07:34:15.614Z,58.70
2019-05-05T07:36:47.472Z,59.40
2019-05-05T07:39:15.353Z,59.50
2019-05-05T07:41:44.803Z,60.90
2019-05-05T07:44:25.467Z,64.30
2019-05-05T07:46:43.939Z,65.00
2019-05-05T07:49:13.719Z,69.30
2019-05-05T07:51:41.210Z,71.80
2019-05-05T07:54:09.217Z,74.50
2019-05-05T07:56:36.964Z,80.10
2019-05-05T07:59:04.760Z,85.70
2019-05-05T08:01:33.692Z,90.00
2019-05-05T08:04:01.666Z,91.70
2019-05-05T08:06:29.393Z,94.00
2019-05-05T08:08:57.125Z,94.90
2019-05-05T08:11:24.849Z,94.60
2019-05-05T08:13:54.594Z,96.30
2019-05-05T08:16:56.575Z,98.60
2019-05-05T08:19:34.688Z,97.50
2019-05-05T08:22:03.649Z,97.30
2019-05-05T08:25:05.921Z,97.20
2019-05-05T08:27:56.094Z,97.40
2019-05-05T08:30:33.692Z,97.30
2019-05-05T08:33:01.905Z,96.70
2019-05-05T08:35:29.666Z,96.10
2019-05-05T08:37:57.385Z,95.70
2019-05-05T08:40:25.122Z,94.70
2019-05-05T08:42:53.938Z,94.50
2019-05-05T08:45:24.571Z,94.40
2019-05-05T08:47:51.307Z,92.10
2019-05-05T08:50:19.056Z,93.40
2019-05-05T08:52:46.770Z,93.20
2019-05-05T08:55:14.544Z,93.60
2019-05-05T08:57:44.523Z,93.00
2019-05-05T09:00:13.898Z,92.70
2019-05-05T09:02:43.633Z,93.10
2019-05-05T09:05:11.677Z,92.10
2019-05-05T09:07:39.382Z,91.10
2019-05-05T09:10:07.110Z,90.80
2019-05-05T09:12:34.849Z,90.00
2019-05-05T09:15:04.419Z,90.00
2019-05-05T09:17:33.634Z,90.00
2019-05-05T09:20:01.491Z,88.60
2019-05-05T09:22:29.249Z,85.30
2019-05-05T09:25:25.133Z,84.60
2019-05-05T09:27:55.533Z,84.60
2019-05-05T09:30:37.566Z,86.00
2019-05-05T09:33:05.354Z,87.10
2019-05-05T09:35:34.242Z,86.10
2019-05-05T09:38:03.930Z,85.10
2019-05-05T09:40:38.908Z,83.60
2019-05-05T09:43:07.055Z,79.70
2019-05-05T09:45:34.904Z,80.80
2019-05-05T09:48:04.338Z,81.40
2019-05-05T09:50:34.062Z,82.60
2019-05-05T09:53:01.718Z,84.40
2019-05-05T09:55:29.415Z,82.10
2019-05-05T09:57:57.145Z,82.50
2019-05-05T10:00:25.072Z,85.00
2019-05-05T10:02:54.424Z,86.00
2019-05-05T10:05:23.645Z,85.00
2019-05-05T10:07:51.448Z,80.70
2019-05-05T10:10:20.868Z,78.30
2019-05-05T10:12:48.600Z,77.80
2019-05-05T10:15:16.511Z,77.60
2019-05-05T10:17:44.260Z,78.30
2019-05-05T10:20:11.974Z,78.10
2019-05-05T10:22:46.089Z,78.80
2019-05-05T10:25:35.508Z,78.20
2019-05-05T10:28:04.195Z,79.50
2019-05-05T10:30:32.160Z,79.40
2019-05-05T10:32:59.877Z,75.50
2019-05-05T10:35:27.617Z,75.90
2019-05-05T10:37:55.353Z,74.30
2019-05-05T10:40:26.848Z,74.00
2019-05-05T10:42:54.563Z,74.80
2019-05-05T10:45:24.228Z,76.50
2019-05-05T10:47:51.806Z,76.70
2019-05-05T10:50:19.535Z,76.70
2019-05-05T10:52:47.277Z,77.30
2019-05-05T10:55:15.125Z,77.70
2019-05-05T10:57:43.574Z,78.90
2019-05-05T11:00:13.217Z,78.70
2019-05-05T11:02:40.928Z,77.80
2019-05-05T11:05:08.749Z,77.40
2019-05-05T11:07:36.510Z,78.20
2019-05-05T11:10:04.295Z,79.20
2019-05-05T11:12:33.710Z,78.40
2019-05-05T11:15:03.926Z,79.00
2019-05-05T11:17:30.969Z,76.50
2019-05-05T11:19:58.703Z,73.90
2019-05-05T11:22:26.418Z,74.60
2019-05-05T11:25:00.581Z,75.40
2019-05-05T11:27:24.138Z,78.20
2019-05-05T11:30:14.450Z,79.10
2019-05-05T11:33:00.385Z,77.30
2019-05-05T11:35:45.465Z,76.30
2019-05-05T11:38:14.150Z,73.40
2019-05-05T11:40:43.808Z,74.40
2019-05-05T11:43:11.554Z,74.70
2019-05-05T11:45:39.279Z,72.00
2019-05-05T11:48:06.985Z,70.90
2019-05-05T11:50:34.702Z,68.10
2019-05-05T11:53:03.903Z,68.50
2019-05-05T11:55:33.503Z,71.00
2019-05-05T11:58:01.205Z,71.70
2019-05-05T12:00:28.945Z,71.00
2019-05-05T12:02:56.693Z,71.50
2019-05-05T12:05:24.484Z,69.50
2019-05-05T12:07:54.021Z,68.80
2019-05-05T12:10:50.048Z,68.20
2019-05-05T12:13:17.770Z,66.10
2019-05-05T12:15:47.714Z,65.50
2019-05-05T12:18:15.445Z,64.20
2019-05-05T12:20:44.107Z,65.60
2019-05-05T12:23:11.897Z,65.90
2019-05-05T12:26:04.994Z,65.80
2019-05-05T12:28:40.346Z,66.90
2019-05-05T12:31:14.161Z,68.10
2019-05-05T12:33:44.052Z,69.50
2019-05-05T12:36:11.457Z,69.40
2019-05-05T12:38:39.197Z,68.70
2019-05-05T12:41:06.913Z,64.80
2019-05-05T12:43:34.620Z,63.20
2019-05-05T12:46:09.986Z,60.80
2019-05-05T12:48:38.265Z,60.20
2019-05-05T12:51:05.993Z,61.70
2019-05-05T12:53:33.826Z,61.60
2019-05-05T12:56:01.554Z,62.20
2019-05-05T12:58:29.310Z,61.50
2019-05-05T13:01:07.240Z,59.90
2019-05-05T13:03:34.992Z,59.10
2019-05-05T13:06:04.118Z,59.60
2019-05-05T13:08:33.906Z,59.10
2019-05-05T13:11:01.473Z,58.20
2019-05-05T13:13:29.201Z,58.30
2019-05-05T13:15:56.940Z,57.00
2019-05-05T13:18:24.989Z,56.60
2019-05-05T13:21:12.125Z,57.50
2019-05-05T13:24:08.541Z,58.00
2019-05-05T13:26:42.262Z,58.50
2019-05-05T13:29:10.009Z,57.80
2019-05-05T13:31:37.771Z,56.60
2019-05-05T13:34:05.527Z,58.40
2019-05-05T13:36:33.507Z,58.60
2019-05-05T13:39:01.289Z,58.90
2019-05-05T13:41:29.038Z,58.50
2019-05-05T13:43:58.276Z,58.80
2019-05-05T13:46:28.013Z,57.20
2019-05-05T13:49:15.271Z,57.40
2019-05-05T13:51:44.770Z,58.10
2019-05-05T13:54:13.632Z,57.40
2019-05-05T13:56:41.357Z,57.20
2019-05-05T13:59:09.111Z,56.40
2019-05-05T14:01:36.814Z,56.30
2019-05-05T14:04:04.671Z,55.40
2019-05-05T14:06:33.489Z,56.50
2019-05-05T14:09:01.322Z,56.00
2019-05-05T14:11:29.026Z,55.60
2019-05-05T14:13:56.776Z,55.50
2019-05-05T14:16:24.481Z,54.60
2019-05-05T14:18:53.705Z,54.70
2019-05-05T14:21:21.529Z,55.90
2019-05-05T14:24:05.186Z,55.60
2019-05-05T14:26:35.173Z,54.70
2019-05-05T14:29:04.318Z,54.80
2019-05-05T14:31:35.473Z,54.20
2019-05-05T14:34:07.020Z,53.50
2019-05-05T14:36:46.025Z,54.30
2019-05-05T14:39:14.896Z,54.90
2019-05-05T14:41:44.478Z,54.90
2019-05-05T14:44:13.461Z,55.40
2019-05-05T14:46:41.273Z,55.90
2019-05-05T14:49:08.990Z,56.10
2019-05-05T14:51:36.729Z,56.20
2019-05-05T14:54:04.649Z,55.50
2019-05-05T14:56:36.386Z,55.00
2019-05-05T14:59:03.710Z,55.70
2019-05-05T15:01:31.597Z,56.60
2019-05-05T15:03:59.314Z,56.70
2019-05-05T15:06:40.989Z,56.20
2019-05-05T15:09:18.538Z,55.30
2019-05-05T15:12:03.642Z,55.40
2019-05-05T15:14:31.232Z,55.30
2019-05-05T15:16:58.986Z,55.80
2019-05-05T15:19:26.693Z,54.00
2019-05-05T15:21:54.495Z,54.70
2019-05-05T15:24:24.454Z,54.90
2019-05-05T15:26:54.734Z,53.40
2019-05-05T15:29:21.629Z,53.40
2019-05-05T15:31:49.473Z,52.80
2019-05-05T15:34:17.174Z,52.80
2019-05-05T15:36:44.939Z,53.00
2019-05-05T15:39:13.863Z,53.50
2019-05-05T15:41:41.884Z,53.60
2019-05-05T15:44:09.696Z,54.10
2019-05-05T15:46:37.477Z,54.30
2019-05-05T15:49:05.232Z,55.00
2019-05-05T15:51:34.363Z,55.30
2019-05-05T15:54:03.872Z,55.50
2019-05-05T15:56:31.649Z,55.00
2019-05-05T15:58:59.401Z,54.40
2019-05-05T16:01:27.113Z,54.80
2019-05-05T16:03:54.853Z,55.40
2019-05-05T16:06:23.755Z,55.10
2019-05-05T16:08:54.381Z,54.40
2019-05-05T16:11:21.061Z,54.00
2019-05-05T16:13:48.789Z,54.30
2019-05-05T16:16:41.925Z,54.60
2019-05-05T16:19:31.704Z,55.40
2019-05-05T16:22:03.942Z,55.60
2019-05-05T16:24:36.579Z,54.80
2019-05-05T16:27:08.193Z,54.90
2019-05-05T16:29:33.671Z,55.30
2019-05-05T16:32:01.548Z,55.60
2019-05-05T16:34:30.728Z,56.60
2019-05-05T16:36:58.457Z,57.00
2019-05-05T16:39:26.170Z,57.00
2019-05-05T16:41:53.904Z,56.40
2019-05-05T16:44:23.342Z,56.40
2019-05-05T16:46:51.169Z,56.60
2019-05-05T16:49:18.921Z,56.30
2019-05-05T16:52:11.982Z,56.30
2019-05-05T16:55:00.805Z,57.20
2019-05-05T16:57:33.940Z,57.90
2019-05-05T16:59:58.085Z,57.60
2019-05-05T17:02:25.824Z,57.00
2019-05-05T17:04:53.933Z,57.00
2019-05-05T17:07:23.649Z,57.20
2019-05-05T17:09:51.154Z,57.10
2019-05-05T17:12:18.861Z,57.00
2019-05-05T17:15:11.053Z,57.20
2019-05-05T17:18:04.692Z,57.70
2019-05-05T17:20:35.970Z,58.30
2019-05-05T17:23:08.406Z,57.80
2019-05-05T17:25:36.157Z,57.50
2019-05-05T17:28:04.540Z,57.90
2019-05-05T17:30:34.123Z,58.00
2019-05-05T17:33:03.665Z,58.30
2019-05-05T17:35:33.590Z,58.60
2019-05-05T17:38:08.724Z,59.30
2019-05-05T17:40:54.544Z,59.30
2019-05-05T17:43:34.072Z,58.80
2019-05-05T17:46:21.153Z,58.90
2019-05-05T17:49:14.163Z,59.20
2019-05-05T17:51:45.950Z,59.90
2019-05-05T17:54:34.560Z,60.10
2019-05-05T17:57:03.578Z,59.80
2019-05-05T17:59:33.549Z,59.60
2019-05-05T18:02:00.988Z,59.60
2019-05-05T18:04:28.735Z,60.20
2019-05-05T18:07:10.175Z,60.60
2019-05-05T18:10:15.569Z,60.90
2019-05-05T18:13:11.805Z,61.50
2019-05-05T18:16:00.825Z,61.80
2019-05-05T18:18:28.561Z,60.90
2019-05-05T18:20:56.295Z,61.10
2019-05-05T18:23:24.053Z,61.10
2019-05-05T18:25:51.770Z,61.30
2019-05-05T18:28:20.217Z,61.90
2019-05-05T18:30:48.101Z,62.40
2019-05-05T18:33:15.846Z,63.30
2019-05-05T18:35:44.425Z,64.20
2019-05-05T18:38:13.722Z,64.80
2019-05-05T18:40:43.409Z,65.00
2019-05-05T18:43:17.154Z,65.40
2019-05-05T18:45:44.870Z,65.90
2019-05-05T18:48:13.956Z,66.70
2019-05-05T18:50:41.752Z,67.00
2019-05-05T18:53:09.478Z,66.70
2019-05-05T18:55:37.221Z,67.30
2019-05-05T18:58:07.366Z,67.80
2019-05-05T19:01:06.781Z,68.90
2019-05-05T19:03:54.458Z,68.70
2019-05-05T19:06:40.545Z,69.20
2019-05-05T19:09:09.681Z,69.70
2019-05-05T19:11:37.396Z,70.10
2019-05-05T19:14:05.145Z,70.80
2019-05-05T19:16:34.602Z,71.00
2019-05-05T19:19:03.653Z,71.60
2019-05-05T19:21:35.962Z,72.00
2019-05-05T19:24:04.039Z,72.70
2019-05-05T19:26:33.644Z,73.60
2019-05-05T19:29:02.966Z,74.20
2019-05-05T19:31:32.104Z,74.80
2019-05-05T19:34:04.108Z,75.10
2019-05-05T19:36:34.145Z,75.60
2019-05-05T19:39:01.504Z,76.20
2019-05-05T19:41:29.253Z,76.90
2019-05-05T19:43:56.993Z,77.50
2019-05-05T19:46:34.688Z,78.00
2019-05-05T19:49:15.789Z,78.50
2019-05-05T19:51:44.625Z,79.30
2019-05-05T19:54:14.375Z,79.90
2019-05-05T19:56:41.997Z,80.20
2019-05-05T19:59:09.713Z,80.40
2019-05-05T20:01:37.912Z,80.60
2019-05-05T20:04:05.687Z,81.10
2019-05-05T20:06:33.439Z,81.70
2019-05-05T20:09:01.145Z,81.90
2019-05-05T20:11:29.067Z,82.30
2019-05-05T20:14:06.612Z,82.50
2019-05-05T20:16:54.830Z,82.70
2019-05-05T20:19:22.870Z,83.30
2019-05-05T20:21:50.605Z,84.00
2019-05-05T20:24:18.318Z,84.00
2019-05-05T20:26:46.054Z,84.60
2019-05-05T20:29:16.945Z,85.10
2019-05-05T20:31:43.421Z,85.70
2019-05-05T20:34:20.437Z,85.90
2019-05-05T20:37:19.307Z,86.20
2019-05-05T20:39:47.057Z,87.00
2019-05-05T20:42:15.027Z,87.60
2019-05-05T20:44:43.760Z,88.00
2019-05-05T20:47:11.681Z,88.70
2019-05-05T20:49:39.505Z,89.10
2019-05-05T20:52:07.213Z,89.60
2019-05-05T20:54:34.933Z,90.00
2019-05-05T20:57:04.354Z,90.40
2019-05-05T20:59:34.109Z,90.30
2019-05-05T21:02:01.682Z,90.50
2019-05-05T21:04:29.473Z,90.70
2019-05-05T21:06:57.220Z,91.00
2019-05-05T21:09:24.996Z,91.30
2019-05-05T21:11:54.575Z,91.50
2019-05-05T21:14:31.976Z,91.70
2019-05-05T21:16:51.928Z,92.00
2019-05-05T21:19:19.686Z,92.20
2019-05-05T21:21:50.821Z,92.40
2019-05-05T21:24:18.501Z,92.90
2019-05-05T21:26:52.985Z,93.00
2019-05-05T21:29:23.889Z,93.30
2019-05-05T21:31:55.498Z,93.60
2019-05-05T21:34:24.772Z,93.90
2019-05-05T21:36:54.020Z,94.20
2019-05-05T21:39:22.020Z,94.40
2019-05-05T21:41:49.741Z,94.80
2019-05-05T21:46:59.210Z,94.90
2019-05-05T21:49:26.442Z,95.30
2019-05-05T21:52:14.351Z,95.60
2019-05-05T21:54:49.117Z,95.90
2019-05-05T21:57:43.950Z,96.30
2019-05-05T22:00:30.831Z,96.70
2019-05-05T22:02:59.053Z,97.10
2019-05-05T22:05:26.805Z,97.60
2019-05-05T22:07:54.645Z,98.00
2019-05-05T22:10:24.376Z,98.20
2019-05-05T22:12:54.109Z,98.40
2019-05-05T22:15:21.414Z,98.60
2019-05-05T22:17:49.117Z,98.70
2019-05-05T22:20:23.230Z,98.90
2019-05-05T22:22:51.103Z,99.00
2019-05-05T22:25:18.883Z,99.30
2019-05-05T22:27:46.593Z,99.40
2019-05-05T22:30:14.433Z,99.60
2019-05-05T22:32:44.050Z,99.90
2019-05-05T22:35:11.761Z,99.80
2019-05-05T22:37:39.480Z,99.90
2019-05-05T22:40:07.215Z,99.90
2019-05-05T22:42:34.921Z,99.90
2019-05-05T22:45:04.464Z,99.90
2019-05-05T22:47:34.341Z,99.90
2019-05-05T22:50:01.737Z,99.90
2019-05-05T22:52:29.441Z,99.90
2019-05-05T22:54:57.165Z,99.90
2019-05-05T22:57:24.895Z,99.90
2019-05-05T22:59:54.136Z,99.90
2019-05-05T23:02:24.495Z,99.90
2019-05-05T23:05:00.487Z,99.90
2019-05-05T23:07:30.233Z,99.90
2019-05-05T23:09:57.959Z,99.90
2019-05-05T23:12:25.703Z,99.90
2019-05-05T23:14:54.486Z,99.90
2019-05-05T23:17:43.706Z,99.90
2019-05-05T23:20:27.414Z,99.90
2019-05-05T23:23:04.761Z,99.90
2019-05-05T23:25:37.380Z,99.90
2019-05-05T23:28:05.144Z,99.90
2019-05-05T23:30:41.150Z,99.90
2019-05-05T23:33:02.473Z,99.90
2019-05-05T23:35:30.208Z,99.90
2019-05-05T23:37:57.949Z,99.90
2019-05-05T23:40:25.696Z,99.90
2019-05-05T23:42:54.009Z,99.90
2019-05-05T23:45:21.989Z,99.90
2019-05-05T23:47:49.846Z,99.90
2019-05-05T23:50:17.564Z,99.90
2019-05-05T23:52:45.342Z,99.90
2019-05-05T23:55:14.313Z,99.90
2019-05-05T23:57:43.771Z,99.90
